Dayton, OH (45413)

4:53 AM EDT en Junio 24, 2018 (GMT -0400)
Oregon Historic District | | Change Station

Alt 0 ft 39.75 °N, 84.18 °W | Updated 17 seconds ago

Parcialmente nublado
Parcialmente nublado
69.4 ° F
Sensación térmica 69.4 ° F
N
0
Viento Variable Viento desde Este
Gusts 0.0 mph

Hoy
Alta -- | Baja -- ° F
--% Posibilidad de precipitaciones
Ayer
Alta -- | Baja -- ° F
Precip. -- pul
Presión 29.86 pul
Visibilidad 10.0 Millas
Nubes Nubes dispersas 7500 ft
Punto de rocío 66 ° F
Humedad 90%
Precipitaciones 0.00 pul
Espesor de la nieve No disponible.
6:09 AM 9:08 PM
Gibosa creciente, 87% visible
METAR KFFO 240756Z AUTO 22004KT 10SM -DZ SCT075 19/18 A2986 RMK AO2 DZE0659DZB01E52DZB54 SLPNO P0000 T01870175
Presión 29.86 pul
Visibilidad 10.0 Millas
Nubes Nubes dispersas 7500 ft
Punto de rocío 66 ° F
Humedad 90%
Precipitaciones 0.00 pul
Espesor de la nieve No disponible.
6:09 AM 9:08 PM
Gibosa creciente, 87% visible
METAR KFFO 240756Z AUTO 22004KT 10SM -DZ SCT075 19/18 A2986 RMK AO2 DZE0659DZB01E52DZB54 SLPNO P0000 T01870175

Get Severe Weather Alerts

Thanks for signing up!

Be on the lookout for a verification email in your inbox.

You'll start receiving the daily forecast at 6 AM.

×

10-Day Weather Forecast

Almanac

Astronomía

Jun. 24, 2018 Salida Puesta
Hora real
Crepúsculo civil
Crepúsculo náutico
Crepúsculo astronómico
Luna
Horas de luz
Horas de luz
Tomorrow will be .
, % of the Moon is Illuminated

Extremos de hoy

Máximos del estado Bajos del estado

Community

WunderPhotos

Category 6

Welcome to Category 6. This is the collective home for Weather Underground's featured writeups by Dr. Jeff Masters (right), Bob Henson (left), Chris Burt, and other regular contributors.

Nearby

Calidad del aire

  Calidad del aire Índice AQ Contaminante
Not available.

Grosos de nieve

Estación Profundido Altura

Actividad de terremotos

Ciudad Distance Mag. Tiempo y dato
Magnitud mínima muestra es 2,5.

Temperaturas de aguas costeras

Lugar Temperatura

Stations

Estaciones meteorológicas cercanas

Ubicación de la estación Temp. Vientos helados Punto de rocío Humedad Viento Precip. Alt Actualizado Tipo
                   

Watches & Warnings

There are currently no watches in effect.